TimeCST,TemperatureF,Dew PointF,Humidity,Sea Level PressureIn,VisibilityMPH,Wind Direction,Wind SpeedMPH,Gust SpeedMPH,PrecipitationIn,Events,Conditions,WindDirDegrees,DateUTC
12:15 AM,12.2,3.2,67,30.34,10.0,Calm,Calm,-,N/A,,Overcast,0,2014-02-04 06:15:00
12:35 AM,12.2,5.0,73,30.34,10.0,Calm,Calm,-,N/A,,Overcast,0,2014-02-04 06:35:00
12:55 AM,12.2,5.0,73,30.35,10.0,SE,3.5,-,N/A,,Overcast,130,2014-02-04 06:55:00
1:15 AM,12.2,5.0,73,30.35,10.0,Calm,Calm,-,N/A,,Overcast,0,2014-02-04 07:15:00
1:35 AM,12.2,3.2,67,30.34,10.0,East,3.5,-,N/A,,Overcast,90,2014-02-04 07:35:00
1:55 AM,12.2,5.0,73,30.35,10.0,Calm,Calm,-,N/A,,Overcast,0,2014-02-04 07:55:00
2:15 AM,12.2,5.0,73,30.35,10.0,Calm,Calm,-,N/A,,Overcast,0,2014-02-04 08:15:00
2:35 AM,12.2,5.0,73,30.35,10.0,Calm,Calm,-,N/A,,Overcast,0,2014-02-04 08:35:00
2:55 AM,12.2,3.2,67,30.35,10.0,Calm,Calm,-,N/A,,Overcast,0,2014-02-04 08:55:00
3:15 AM,10.4,5.0,79,30.35,10.0,Calm,Calm,-,N/A,,Mostly Cloudy,0,2014-02-04 09:15:00
3:35 AM,10.4,5.0,79,30.35,10.0,Calm,Calm,-,N/A,,Overcast,0,2014-02-04 09:35:00
3:55 AM,10.4,5.0,79,30.35,10.0,Calm,Calm,-,N/A,,Overcast,0,2014-02-04 09:55:00
4:20 AM,10.4,3.2,73,30.36,10.0,Calm,Calm,-,N/A,,Overcast,0,2014-02-04 10:20:00
4:35 AM,10.4,3.2,73,30.35,10.0,Calm,Calm,-,N/A,,Overcast,0,2014-02-04 10:35:00
4:55 AM,8.6,3.2,79,30.35,10.0,Calm,Calm,-,N/A,,Overcast,0,2014-02-04 10:55:00
5:15 AM,6.8,1.4,79,30.35,10.0,Calm,Calm,-,N/A,,Overcast,0,2014-02-04 11:15:00
5:35 AM,8.6,1.4,73,30.35,10.0,NE,4.6,-,N/A,,Overcast,50,2014-02-04 11:35:00
5:55 AM,5.0,-0.4,78,30.36,10.0,Calm,Calm,-,N/A,,Overcast,0,2014-02-04 11:55:00
6:15 AM,8.6,1.4,73,30.36,10.0,Calm,Calm,-,N/A,,Overcast,0,2014-02-04 12:15:00
6:35 AM,6.8,1.4,79,30.36,10.0,Calm,Calm,-,N/A,,Overcast,0,2014-02-04 12:35:00
6:55 AM,6.8,1.4,79,30.37,9.0,Calm,Calm,-,N/A,,Overcast,0,2014-02-04 12:55:00
7:15 AM,5.0,-0.4,78,30.38,10.0,Calm,Calm,-,N/A,,Overcast,0,2014-02-04 13:15:00
7:35 AM,6.8,1.4,79,30.38,10.0,Calm,Calm,-,N/A,,Overcast,0,2014-02-04 13:35:00
7:55 AM,6.8,1.4,79,30.39,10.0,Calm,Calm,-,N/A,,Overcast,0,2014-02-04 13:55:00
8:15 AM,8.6,3.2,79,30.39,10.0,Calm,Calm,-,N/A,,Overcast,0,2014-02-04 14:15:00
8:35 AM,10.4,3.2,73,30.38,10.0,Calm,Calm,-,N/A,,Overcast,0,2014-02-04 14:35:00
8:55 AM,10.4,3.2,73,30.38,-9999.0,Calm,Calm,-,N/A,,Overcast,0,2014-02-04 14:55:00
9:15 AM,12.2,3.2,67,30.37,9.0,Calm,Calm,-,N/A,,Overcast,0,2014-02-04 15:15:00
9:35 AM,14.0,5.0,67,30.35,2.0,NNE,3.5,-,N/A,,Haze,30,2014-02-04 15:35:00
9:55 AM,14.0,5.0,67,30.35,10.0,NE,5.8,-,N/A,,Overcast,40,2014-02-04 15:55:00
10:15 AM,15.8,5.0,62,30.35,10.0,NE,5.8,-,N/A,,Overcast,50,2014-02-04 16:15:00
10:35 AM,15.8,5.0,62,30.36,10.0,NE,6.9,-,N/A,,Overcast,40,2014-02-04 16:35:00
10:55 AM,15.8,6.8,68,30.36,10.0,NNE,6.9,-,N/A,,Overcast,30,2014-02-04 16:55:00
11:15 AM,15.8,6.8,68,30.36,10.0,ENE,3.5,-,N/A,,Overcast,60,2014-02-04 17:15:00
11:35 AM,15.8,6.8,68,30.34,10.0,ENE,4.6,-,N/A,,Mostly Cloudy,60,2014-02-04 17:35:00
11:55 AM,15.8,8.6,73,30.33,10.0,NE,5.8,-,N/A,,Partly Cloudy,40,2014-02-04 17:55:00
12:15 PM,15.8,8.6,73,30.31,9.0,Calm,Calm,-,N/A,,Clear,0,2014-02-04 18:15:00
12:35 PM,17.6,8.6,68,30.30,9.0,NE,4.6,-,N/A,,Clear,40,2014-02-04 18:35:00
12:55 PM,17.6,8.6,68,30.28,6.0,NE,6.9,-,N/A,Snow,Light Snow,40,2014-02-04 18:55:00
1:15 PM,17.6,10.4,73,30.29,6.0,NNE,6.9,-,N/A,Snow,Light Snow,20,2014-02-04 19:15:00
1:35 PM,17.6,8.6,68,30.30,9.0,NNE,5.8,-,N/A,,Clear,30,2014-02-04 19:35:00
1:55 PM,17.6,10.4,73,30.31,8.0,NE,4.6,-,N/A,,Clear,40,2014-02-04 19:55:00
2:15 PM,17.6,8.6,68,30.28,7.0,NE,5.8,-,N/A,Snow,Light Snow,50,2014-02-04 20:15:00
2:35 PM,17.6,10.4,73,30.28,3.0,NNE,8.1,-,N/A,Snow,Light Snow,30,2014-02-04 20:35:00
2:55 PM,17.6,10.4,73,30.26,1.8,NNE,12.7,-,N/A,Snow,Light Snow,30,2014-02-04 20:55:00
3:15 PM,17.6,12.2,79,30.24,2.5,NE,5.8,12.7,N/A,Snow,Light Snow,40,2014-02-04 21:15:00
3:35 PM,17.6,12.2,79,30.24,2.5,NE,6.9,13.8,N/A,Snow,Light Snow,40,2014-02-04 21:35:00
3:55 PM,17.6,12.2,79,30.25,-9999.0,NE,8.1,-,N/A,Snow,Light Snow,40,2014-02-04 21:55:00
4:15 PM,17.6,12.2,79,30.25,1.8,NE,6.9,-,N/A,Snow,Light Snow,40,2014-02-04 22:15:00
4:35 PM,17.6,12.2,79,30.22,1.5,NNE,10.4,-,N/A,Snow,Light Snow,30,2014-02-04 22:35:00
4:55 PM,17.6,12.2,79,30.23,2.0,NNE,11.5,-,N/A,Snow,Light Snow,20,2014-02-04 22:55:00
5:15 PM,17.6,12.2,79,30.24,2.0,NNE,10.4,-,N/A,Snow,Light Snow,20,2014-02-04 23:15:00
5:35 PM,17.6,10.4,73,30.24,2.0,NNE,8.1,-,N/A,Snow,Light Snow,20,2014-02-04 23:35:00
5:55 PM,17.6,12.2,79,30.25,2.5,North,5.8,-,N/A,Snow,Light Snow,10,2014-02-04 23:55:00
6:15 PM,15.8,12.2,86,30.25,1.5,NNE,8.1,-,N/A,Snow,Light Snow,20,2014-02-05 00:15:00
6:35 PM,15.8,12.2,86,30.24,1.0,NNE,11.5,-,N/A,Snow,Light Snow,30,2014-02-05 00:35:00
6:55 PM,15.8,12.2,86,30.23,1.5,NNE,10.4,-,N/A,Snow,Light Snow,20,2014-02-05 00:55:00
7:15 PM,15.8,12.2,86,30.22,1.8,NNE,10.4,-,N/A,Snow,Light Snow,20,2014-02-05 01:15:00
7:35 PM,15.8,12.2,86,30.21,2.0,NNE,10.4,-,N/A,Snow,Light Snow,30,2014-02-05 01:35:00
7:55 PM,15.8,12.2,86,30.20,2.0,NNE,11.5,-,N/A,Snow,Light Snow,20,2014-02-05 01:55:00
8:15 PM,15.8,12.2,86,30.21,2.5,NNE,10.4,-,N/A,Snow,Light Snow,20,2014-02-05 02:15:00
8:35 PM,15.8,10.4,79,30.20,2.5,NNE,11.5,-,N/A,Snow,Light Snow,20,2014-02-05 02:35:00
8:55 PM,15.8,12.2,86,30.21,2.5,NNE,11.5,-,N/A,Snow,Light Snow,20,2014-02-05 02:55:00
9:15 PM,15.8,12.2,86,30.20,1.5,NNE,12.7,-,N/A,Snow,Light Snow,20,2014-02-05 03:15:00
9:35 PM,15.8,12.2,86,30.21,1.5,NNE,9.2,17.3,N/A,Snow,Light Snow,30,2014-02-05 03:35:00
9:55 PM,15.8,12.2,86,30.21,1.0,North,8.1,-,N/A,Snow,Light Snow,10,2014-02-05 03:55:00
10:15 PM,15.8,12.2,86,30.20,1.2,NNE,11.5,-,N/A,Snow,Light Snow,20,2014-02-05 04:15:00
10:35 PM,15.8,12.2,86,30.20,1.2,North,10.4,-,N/A,Snow,Light Snow,10,2014-02-05 04:35:00
10:55 PM,15.8,12.2,86,30.21,1.2,North,8.1,-,N/A,Snow,Light Snow,10,2014-02-05 04:55:00
11:15 PM,15.8,12.2,86,30.21,1.8,North,8.1,15.0,N/A,Snow,Light Snow,10,2014-02-05 05:15:00
11:35 PM,15.8,12.2,86,30.21,1.5,North,8.1,15.0,N/A,Snow,Light Snow,10,2014-02-05 05:35:00
11:55 PM,15.8,12.2,86,30.21,0.8,North,9.2,17.3,N/A,Snow,Light Snow,360,2014-02-05 05:55:00